sensor_id;sensor_type;location;lat;lon;timestamp;P1;durP1;ratioP1;P2;durP2;ratioP2
73487;SDS011;61721;42.206;25.320;2023-03-23T00:01:51;14.13;;;7.20;;
73487;SDS011;61721;42.206;25.320;2023-03-23T00:04:21;11.05;;;6.22;;
73487;SDS011;61721;42.206;25.320;2023-03-23T00:06:52;12.63;;;6.80;;
73487;SDS011;61721;42.206;25.320;2023-03-23T00:09:20;14.02;;;7.30;;
73487;SDS011;61721;42.206;25.320;2023-03-23T00:11:50;14.05;;;7.40;;
73487;SDS011;61721;42.206;25.320;2023-03-23T00:14:23;13.05;;;7.20;;
73487;SDS011;61721;42.206;25.320;2023-03-23T00:16:50;13.10;;;7.03;;
73487;SDS011;61721;42.206;25.320;2023-03-23T00:19:17;16.98;;;7.50;;
73487;SDS011;61721;42.206;25.320;2023-03-23T00:21:48;15.85;;;7.80;;
73487;SDS011;61721;42.206;25.320;2023-03-23T00:24:18;13.02;;;7.70;;
73487;SDS011;61721;42.206;25.320;2023-03-23T00:26:46;14.90;;;7.20;;
73487;SDS011;61721;42.206;25.320;2023-03-23T00:29:17;16.10;;;7.85;;
73487;SDS011;61721;42.206;25.320;2023-03-23T00:31:46;15.18;;;7.28;;
73487;SDS011;61721;42.206;25.320;2023-03-23T00:34:15;14.70;;;7.45;;
73487;SDS011;61721;42.206;25.320;2023-03-23T00:36:44;13.52;;;7.38;;
73487;SDS011;61721;42.206;25.320;2023-03-23T00:39:13;16.30;;;7.65;;
73487;SDS011;61721;42.206;25.320;2023-03-23T00:41:42;16.08;;;7.57;;
73487;SDS011;61721;42.206;25.320;2023-03-23T00:44:10;13.77;;;7.53;;
73487;SDS011;61721;42.206;25.320;2023-03-23T00:46:41;12.88;;;6.60;;
73487;SDS011;61721;42.206;25.320;2023-03-23T00:49:10;15.70;;;8.10;;
73487;SDS011;61721;42.206;25.320;2023-03-23T00:51:39;13.85;;;7.82;;
73487;SDS011;61721;42.206;25.320;2023-03-23T00:54:07;12.90;;;6.90;;
73487;SDS011;61721;42.206;25.320;2023-03-23T00:56:36;13.48;;;7.10;;
73487;SDS011;61721;42.206;25.320;2023-03-23T00:59:05;13.88;;;7.13;;
73487;SDS011;61721;42.206;25.320;2023-03-23T01:01:32;14.80;;;7.57;;
73487;SDS011;61721;42.206;25.320;2023-03-23T01:04:00;14.20;;;7.65;;
73487;SDS011;61721;42.206;25.320;2023-03-23T01:06:29;13.45;;;6.90;;
73487;SDS011;61721;42.206;25.320;2023-03-23T01:08:57;12.48;;;6.40;;
73487;SDS011;61721;42.206;25.320;2023-03-23T01:11:26;12.82;;;6.78;;
73487;SDS011;61721;42.206;25.320;2023-03-23T01:13:55;11.88;;;6.85;;
73487;SDS011;61721;42.206;25.320;2023-03-23T01:16:22;12.02;;;6.68;;
73487;SDS011;61721;42.206;25.320;2023-03-23T01:18:49;13.85;;;7.05;;
73487;SDS011;61721;42.206;25.320;2023-03-23T01:21:18;10.65;;;6.45;;
73487;SDS011;61721;42.206;25.320;2023-03-23T01:23:46;12.90;;;6.82;;
73487;SDS011;61721;42.206;25.320;2023-03-23T01:26:15;11.18;;;6.22;;
73487;SDS011;61721;42.206;25.320;2023-03-23T01:28:46;12.90;;;6.90;;
73487;SDS011;61721;42.206;25.320;2023-03-23T01:31:15;11.73;;;7.10;;
73487;SDS011;61721;42.206;25.320;2023-03-23T01:33:44;11.40;;;6.30;;
73487;SDS011;61721;42.206;25.320;2023-03-23T01:36:13;14.40;;;6.75;;
73487;SDS011;61721;42.206;25.320;2023-03-23T01:38:48;11.48;;;6.25;;
73487;SDS011;61721;42.206;25.320;2023-03-23T01:41:17;12.13;;;7.03;;
73487;SDS011;61721;42.206;25.320;2023-03-23T01:43:55;17.02;;;7.78;;
73487;SDS011;61721;42.206;25.320;2023-03-23T01:46:26;12.02;;;6.00;;
73487;SDS011;61721;42.206;25.320;2023-03-23T01:48:55;12.50;;;6.38;;
73487;SDS011;61721;42.206;25.320;2023-03-23T01:51:24;12.00;;;6.82;;
73487;SDS011;61721;42.206;25.320;2023-03-23T01:53:54;11.88;;;6.50;;
73487;SDS011;61721;42.206;25.320;2023-03-23T01:56:24;12.50;;;6.38;;
73487;SDS011;61721;42.206;25.320;2023-03-23T01:58:58;11.60;;;6.20;;
73487;SDS011;61721;42.206;25.320;2023-03-23T02:01:27;12.27;;;6.32;;
73487;SDS011;61721;42.206;25.320;2023-03-23T02:03:55;10.93;;;6.03;;
73487;SDS011;61721;42.206;25.320;2023-03-23T02:06:24;11.02;;;6.30;;
73487;SDS011;61721;42.206;25.320;2023-03-23T02:08:51;10.75;;;6.03;;
73487;SDS011;61721;42.206;25.320;2023-03-23T02:11:19;11.95;;;6.45;;
73487;SDS011;61721;42.206;25.320;2023-03-23T02:13:47;11.85;;;6.15;;
73487;SDS011;61721;42.206;25.320;2023-03-23T02:16:21;11.63;;;6.18;;
73487;SDS011;61721;42.206;25.320;2023-03-23T02:19:04;9.63;;;5.57;;
73487;SDS011;61721;42.206;25.320;2023-03-23T02:21:51;10.05;;;5.82;;
73487;SDS011;61721;42.206;25.320;2023-03-23T02:30:37;12.80;;;5.68;;
73487;SDS011;61721;42.206;25.320;2023-03-23T02:33:19;10.45;;;5.63;;
73487;SDS011;61721;42.206;25.320;2023-03-23T02:35:56;12.23;;;5.82;;
73487;SDS011;61721;42.206;25.320;2023-03-23T02:38:30;11.82;;;5.45;;
73487;SDS011;61721;42.206;25.320;2023-03-23T02:41:01;9.45;;;5.18;;
73487;SDS011;61721;42.206;25.320;2023-03-23T02:43:31;9.70;;;5.57;;
73487;SDS011;61721;42.206;25.320;2023-03-23T02:46:04;11.45;;;5.53;;
73487;SDS011;61721;42.206;25.320;2023-03-23T02:48:36;10.30;;;5.88;;
73487;SDS011;61721;42.206;25.320;2023-03-23T02:51:07;10.93;;;5.93;;
73487;SDS011;61721;42.206;25.320;2023-03-23T02:53:37;10.77;;;5.82;;
73487;SDS011;61721;42.206;25.320;2023-03-23T02:56:09;12.10;;;7.57;;
73487;SDS011;61721;42.206;25.320;2023-03-23T02:58:39;14.63;;;7.20;;
73487;SDS011;61721;42.206;25.320;2023-03-23T03:04:13;13.00;;;7.15;;
73487;SDS011;61721;42.206;25.320;2023-03-23T03:06:46;15.20;;;6.63;;
73487;SDS011;61721;42.206;25.320;2023-03-23T03:09:26;11.00;;;6.30;;
73487;SDS011;61721;42.206;25.320;2023-03-23T03:12:02;13.85;;;6.90;;
73487;SDS011;61721;42.206;25.320;2023-03-23T03:14:36;11.32;;;5.93;;
73487;SDS011;61721;42.206;25.320;2023-03-23T03:17:07;16.15;;;8.30;;
73487;SDS011;61721;42.206;25.320;2023-03-23T03:19:44;12.80;;;6.90;;
73487;SDS011;61721;42.206;25.320;2023-03-23T03:22:16;12.48;;;6.55;;
73487;SDS011;61721;42.206;25.320;2023-03-23T03:24:47;15.05;;;7.05;;
73487;SDS011;61721;42.206;25.320;2023-03-23T03:27:18;20.23;;;11.35;;
73487;SDS011;61721;42.206;25.320;2023-03-23T03:29:49;17.58;;;9.00;;
73487;SDS011;61721;42.206;25.320;2023-03-23T03:32:22;12.57;;;6.90;;
73487;SDS011;61721;42.206;25.320;2023-03-23T03:34:58;11.68;;;6.15;;
73487;SDS011;61721;42.206;25.320;2023-03-23T03:37:26;12.77;;;6.20;;
73487;SDS011;61721;42.206;25.320;2023-03-23T03:39:53;11.07;;;6.20;;
73487;SDS011;61721;42.206;25.320;2023-03-23T03:42:21;12.60;;;6.95;;
73487;SDS011;61721;42.206;25.320;2023-03-23T03:44:48;13.75;;;6.85;;
73487;SDS011;61721;42.206;25.320;2023-03-23T03:47:15;14.68;;;8.27;;
73487;SDS011;61721;42.206;25.320;2023-03-23T03:49:42;14.50;;;7.43;;
73487;SDS011;61721;42.206;25.320;2023-03-23T03:52:11;16.80;;;9.18;;
73487;SDS011;61721;42.206;25.320;2023-03-23T03:54:38;12.98;;;6.63;;
73487;SDS011;61721;42.206;25.320;2023-03-23T03:57:05;11.55;;;6.40;;
73487;SDS011;61721;42.206;25.320;2023-03-23T03:59:33;14.73;;;6.97;;
73487;SDS011;61721;42.206;25.320;2023-03-23T04:02:00;16.67;;;8.18;;
73487;SDS011;61721;42.206;25.320;2023-03-23T04:04:27;10.93;;;6.68;;
73487;SDS011;61721;42.206;25.320;2023-03-23T04:06:54;13.30;;;7.78;;
73487;SDS011;61721;42.206;25.320;2023-03-23T04:09:24;15.23;;;7.47;;
73487;SDS011;61721;42.206;25.320;2023-03-23T04:11:52;16.27;;;7.57;;
73487;SDS011;61721;42.206;25.320;2023-03-23T04:14:19;16.48;;;7.57;;
73487;SDS011;61721;42.206;25.320;2023-03-23T04:16:46;16.92;;;9.43;;
73487;SDS011;61721;42.206;25.320;2023-03-23T04:19:21;16.10;;;10.10;;
73487;SDS011;61721;42.206;25.320;2023-03-23T04:21:49;16.85;;;9.27;;
73487;SDS011;61721;42.206;25.320;2023-03-23T04:24:16;16.75;;;8.57;;
73487;SDS011;61721;42.206;25.320;2023-03-23T04:26:48;17.27;;;8.73;;
73487;SDS011;61721;42.206;25.320;2023-03-23T04:29:19;15.98;;;8.38;;
73487;SDS011;61721;42.206;25.320;2023-03-23T04:31:46;16.05;;;8.25;;
73487;SDS011;61721;42.206;25.320;2023-03-23T04:34:16;16.33;;;8.52;;
73487;SDS011;61721;42.206;25.320;2023-03-23T04:36:44;15.05;;;8.48;;
73487;SDS011;61721;42.206;25.320;2023-03-23T04:39:11;18.80;;;8.65;;
73487;SDS011;61721;42.206;25.320;2023-03-23T04:41:41;16.75;;;9.00;;
73487;SDS011;61721;42.206;25.320;2023-03-23T04:44:10;15.75;;;8.55;;
73487;SDS011;61721;42.206;25.320;2023-03-23T04:46:43;14.48;;;8.25;;
73487;SDS011;61721;42.206;25.320;2023-03-23T04:49:15;14.38;;;8.00;;
73487;SDS011;61721;42.206;25.320;2023-03-23T04:51:46;16.55;;;8.52;;
73487;SDS011;61721;42.206;25.320;2023-03-23T04:54:14;15.00;;;8.15;;
73487;SDS011;61721;42.206;25.320;2023-03-23T04:56:41;13.85;;;7.70;;
73487;SDS011;61721;42.206;25.320;2023-03-23T04:59:08;12.60;;;7.07;;
73487;SDS011;61721;42.206;25.320;2023-03-23T05:01:37;14.45;;;7.78;;
73487;SDS011;61721;42.206;25.320;2023-03-23T05:04:05;14.63;;;7.65;;
73487;SDS011;61721;42.206;25.320;2023-03-23T05:06:32;15.00;;;7.78;;
73487;SDS011;61721;42.206;25.320;2023-03-23T05:09:00;20.77;;;11.93;;
73487;SDS011;61721;42.206;25.320;2023-03-23T05:11:28;21.20;;;12.85;;
73487;SDS011;61721;42.206;25.320;2023-03-23T05:13:55;25.55;;;14.45;;
73487;SDS011;61721;42.206;25.320;2023-03-23T05:16:22;24.15;;;12.15;;
73487;SDS011;61721;42.206;25.320;2023-03-23T05:18:52;17.92;;;10.85;;
73487;SDS011;61721;42.206;25.320;2023-03-23T05:21:22;21.65;;;11.68;;
73487;SDS011;61721;42.206;25.320;2023-03-23T05:23:49;15.82;;;10.20;;
73487;SDS011;61721;42.206;25.320;2023-03-23T05:26:20;18.50;;;10.38;;
73487;SDS011;61721;42.206;25.320;2023-03-23T05:28:47;22.75;;;11.55;;
73487;SDS011;61721;42.206;25.320;2023-03-23T05:31:18;20.77;;;10.75;;
73487;SDS011;61721;42.206;25.320;2023-03-23T05:33:45;25.38;;;12.00;;
73487;SDS011;61721;42.206;25.320;2023-03-23T05:36:14;20.75;;;10.75;;
73487;SDS011;61721;42.206;25.320;2023-03-23T05:38:41;20.00;;;11.00;;
73487;SDS011;61721;42.206;25.320;2023-03-23T05:41:10;18.58;;;10.07;;
73487;SDS011;61721;42.206;25.320;2023-03-23T05:43:37;16.25;;;8.93;;
73487;SDS011;61721;42.206;25.320;2023-03-23T05:46:05;19.35;;;8.68;;
73487;SDS011;61721;42.206;25.320;2023-03-23T05:48:33;16.52;;;8.75;;
73487;SDS011;61721;42.206;25.320;2023-03-23T05:51:00;21.15;;;11.25;;
73487;SDS011;61721;42.206;25.320;2023-03-23T05:53:29;22.20;;;10.88;;
73487;SDS011;61721;42.206;25.320;2023-03-23T05:55:58;21.15;;;10.93;;
73487;SDS011;61721;42.206;25.320;2023-03-23T05:58:26;17.65;;;9.77;;
73487;SDS011;61721;42.206;25.320;2023-03-23T06:00:54;20.73;;;10.52;;
73487;SDS011;61721;42.206;25.320;2023-03-23T06:03:21;25.73;;;11.85;;
73487;SDS011;61721;42.206;25.320;2023-03-23T06:05:48;27.92;;;13.43;;
73487;SDS011;61721;42.206;25.320;2023-03-23T06:08:16;25.80;;;12.80;;
73487;SDS011;61721;42.206;25.320;2023-03-23T06:10:44;27.30;;;13.02;;
73487;SDS011;61721;42.206;25.320;2023-03-23T06:13:12;22.77;;;12.15;;
73487;SDS011;61721;42.206;25.320;2023-03-23T06:15:39;22.17;;;10.27;;
73487;SDS011;61721;42.206;25.320;2023-03-23T06:18:06;21.77;;;10.48;;
73487;SDS011;61721;42.206;25.320;2023-03-23T06:20:34;18.60;;;10.23;;
73487;SDS011;61721;42.206;25.320;2023-03-23T06:23:02;24.42;;;11.25;;
73487;SDS011;61721;42.206;25.320;2023-03-23T06:25:29;20.15;;;9.80;;
73487;SDS011;61721;42.206;25.320;2023-03-23T06:27:58;23.42;;;10.88;;
73487;SDS011;61721;42.206;25.320;2023-03-23T06:30:26;17.60;;;9.70;;
73487;SDS011;61721;42.206;25.320;2023-03-23T06:32:54;22.52;;;11.00;;
73487;SDS011;61721;42.206;25.320;2023-03-23T06:35:22;21.02;;;10.88;;
73487;SDS011;61721;42.206;25.320;2023-03-23T06:37:49;23.00;;;10.60;;
73487;SDS011;61721;42.206;25.320;2023-03-23T06:40:18;21.38;;;11.82;;
73487;SDS011;61721;42.206;25.320;2023-03-23T06:42:48;22.77;;;12.00;;
73487;SDS011;61721;42.206;25.320;2023-03-23T06:45:16;18.27;;;10.02;;
73487;SDS011;61721;42.206;25.320;2023-03-23T06:47:45;20.23;;;10.30;;
73487;SDS011;61721;42.206;25.320;2023-03-23T06:50:13;18.83;;;10.23;;
73487;SDS011;61721;42.206;25.320;2023-03-23T06:52:44;25.40;;;12.07;;
73487;SDS011;61721;42.206;25.320;2023-03-23T06:55:12;18.25;;;9.35;;
73487;SDS011;61721;42.206;25.320;2023-03-23T06:57:39;19.60;;;11.10;;
73487;SDS011;61721;42.206;25.320;2023-03-23T07:00:08;23.17;;;11.90;;
73487;SDS011;61721;42.206;25.320;2023-03-23T07:02:40;19.98;;;10.98;;
73487;SDS011;61721;42.206;25.320;2023-03-23T07:05:08;17.88;;;9.88;;
73487;SDS011;61721;42.206;25.320;2023-03-23T07:07:35;18.05;;;8.73;;
73487;SDS011;61721;42.206;25.320;2023-03-23T07:10:03;18.52;;;9.57;;
73487;SDS011;61721;42.206;25.320;2023-03-23T07:12:31;17.48;;;10.20;;
73487;SDS011;61721;42.206;25.320;2023-03-23T07:14:58;23.17;;;12.18;;
73487;SDS011;61721;42.206;25.320;2023-03-23T07:17:26;42.75;;;21.65;;
73487;SDS011;61721;42.206;25.320;2023-03-23T07:19:56;22.02;;;12.02;;
73487;SDS011;61721;42.206;25.320;2023-03-23T07:22:23;15.68;;;7.93;;
73487;SDS011;61721;42.206;25.320;2023-03-23T07:24:50;17.05;;;8.30;;
73487;SDS011;61721;42.206;25.320;2023-03-23T07:27:17;15.95;;;9.02;;
73487;SDS011;61721;42.206;25.320;2023-03-23T07:29:44;15.68;;;8.52;;
73487;SDS011;61721;42.206;25.320;2023-03-23T07:32:11;17.20;;;8.48;;
73487;SDS011;61721;42.206;25.320;2023-03-23T07:34:39;20.25;;;11.00;;
73487;SDS011;61721;42.206;25.320;2023-03-23T07:37:08;18.52;;;10.30;;
73487;SDS011;61721;42.206;25.320;2023-03-23T07:39:35;16.05;;;9.55;;
73487;SDS011;61721;42.206;25.320;2023-03-23T07:42:02;16.48;;;10.02;;
73487;SDS011;61721;42.206;25.320;2023-03-23T07:44:32;19.95;;;10.00;;
73487;SDS011;61721;42.206;25.320;2023-03-23T07:46:59;15.70;;;8.80;;
73487;SDS011;61721;42.206;25.320;2023-03-23T07:49:26;17.10;;;8.65;;
73487;SDS011;61721;42.206;25.320;2023-03-23T07:51:55;16.10;;;9.07;;
73487;SDS011;61721;42.206;25.320;2023-03-23T07:54:24;14.68;;;8.60;;
73487;SDS011;61721;42.206;25.320;2023-03-23T07:56:51;13.57;;;8.27;;
73487;SDS011;61721;42.206;25.320;2023-03-23T07:59:19;19.92;;;11.27;;
73487;SDS011;61721;42.206;25.320;2023-03-23T08:01:46;19.33;;;10.68;;
73487;SDS011;61721;42.206;25.320;2023-03-23T08:04:13;15.68;;;9.90;;
73487;SDS011;61721;42.206;25.320;2023-03-23T08:06:40;13.63;;;8.23;;
73487;SDS011;61721;42.206;25.320;2023-03-23T08:09:08;13.63;;;7.60;;
73487;SDS011;61721;42.206;25.320;2023-03-23T08:11:37;18.08;;;9.82;;
73487;SDS011;61721;42.206;25.320;2023-03-23T08:14:04;18.10;;;9.90;;
73487;SDS011;61721;42.206;25.320;2023-03-23T08:16:32;14.85;;;8.55;;
73487;SDS011;61721;42.206;25.320;2023-03-23T08:18:59;15.00;;;9.13;;
73487;SDS011;61721;42.206;25.320;2023-03-23T08:21:27;14.77;;;8.70;;
73487;SDS011;61721;42.206;25.320;2023-03-23T08:23:54;16.13;;;8.57;;
73487;SDS011;61721;42.206;25.320;2023-03-23T08:26:22;12.77;;;8.65;;
73487;SDS011;61721;42.206;25.320;2023-03-23T08:28:50;17.58;;;8.82;;
73487;SDS011;61721;42.206;25.320;2023-03-23T08:31:18;15.88;;;9.73;;
73487;SDS011;61721;42.206;25.320;2023-03-23T08:33:45;17.70;;;10.57;;
73487;SDS011;61721;42.206;25.320;2023-03-23T08:36:12;18.02;;;11.10;;
73487;SDS011;61721;42.206;25.320;2023-03-23T08:38:40;15.07;;;9.75;;
73487;SDS011;61721;42.206;25.320;2023-03-23T08:41:08;17.60;;;9.77;;
73487;SDS011;61721;42.206;25.320;2023-03-23T08:43:36;17.65;;;11.02;;
73487;SDS011;61721;42.206;25.320;2023-03-23T08:46:07;15.43;;;10.20;;
73487;SDS011;61721;42.206;25.320;2023-03-23T08:48:35;16.90;;;9.32;;
73487;SDS011;61721;42.206;25.320;2023-03-23T08:51:05;15.13;;;8.65;;
73487;SDS011;61721;42.206;25.320;2023-03-23T08:53:34;14.60;;;9.05;;
73487;SDS011;61721;42.206;25.320;2023-03-23T08:56:02;14.82;;;9.45;;
73487;SDS011;61721;42.206;25.320;2023-03-23T08:58:31;17.13;;;10.23;;
73487;SDS011;61721;42.206;25.320;2023-03-23T09:00:59;16.10;;;9.50;;
73487;SDS011;61721;42.206;25.320;2023-03-23T09:03:28;17.23;;;10.00;;
73487;SDS011;61721;42.206;25.320;2023-03-23T09:05:58;14.20;;;8.80;;
73487;SDS011;61721;42.206;25.320;2023-03-23T09:08:26;15.82;;;9.60;;
73487;SDS011;61721;42.206;25.320;2023-03-23T09:10:54;17.10;;;9.18;;
73487;SDS011;61721;42.206;25.320;2023-03-23T09:13:21;15.10;;;9.02;;
73487;SDS011;61721;42.206;25.320;2023-03-23T09:15:49;18.90;;;10.38;;
73487;SDS011;61721;42.206;25.320;2023-03-23T09:18:17;15.20;;;9.40;;
73487;SDS011;61721;42.206;25.320;2023-03-23T09:20:46;17.00;;;8.75;;
73487;SDS011;61721;42.206;25.320;2023-03-23T09:23:16;17.25;;;9.50;;
73487;SDS011;61721;42.206;25.320;2023-03-23T09:25:43;17.05;;;8.98;;
73487;SDS011;61721;42.206;25.320;2023-03-23T09:28:11;15.65;;;8.68;;
73487;SDS011;61721;42.206;25.320;2023-03-23T09:30:39;14.63;;;8.63;;
73487;SDS011;61721;42.206;25.320;2023-03-23T09:33:08;11.23;;;6.97;;
73487;SDS011;61721;42.206;25.320;2023-03-23T09:35:35;12.25;;;7.32;;
73487;SDS011;61721;42.206;25.320;2023-03-23T09:38:05;15.05;;;7.97;;
73487;SDS011;61721;42.206;25.320;2023-03-23T09:40:35;13.57;;;7.55;;
73487;SDS011;61721;42.206;25.320;2023-03-23T09:46:11;12.48;;;7.20;;
73487;SDS011;61721;42.206;25.320;2023-03-23T09:48:47;11.80;;;6.88;;
73487;SDS011;61721;42.206;25.320;2023-03-23T09:51:22;14.75;;;7.45;;
73487;SDS011;61721;42.206;25.320;2023-03-23T09:54:00;13.35;;;7.57;;
73487;SDS011;61721;42.206;25.320;2023-03-23T09:56:33;15.07;;;8.27;;
73487;SDS011;61721;42.206;25.320;2023-03-23T09:59:03;18.38;;;8.35;;
73487;SDS011;61721;42.206;25.320;2023-03-23T10:01:37;38.88;;;18.23;;
73487;SDS011;61721;42.206;25.320;2023-03-23T10:04:09;18.40;;;9.65;;
73487;SDS011;61721;42.206;25.320;2023-03-23T10:06:42;15.35;;;8.63;;
73487;SDS011;61721;42.206;25.320;2023-03-23T10:09:12;21.80;;;11.88;;
73487;SDS011;61721;42.206;25.320;2023-03-23T10:11:46;18.23;;;9.90;;
73487;SDS011;61721;42.206;25.320;2023-03-23T10:14:24;14.70;;;8.43;;
73487;SDS011;61721;42.206;25.320;2023-03-23T10:17:00;11.85;;;7.18;;
73487;SDS011;61721;42.206;25.320;2023-03-23T10:19:42;11.80;;;6.63;;
73487;SDS011;61721;42.206;25.320;2023-03-23T10:22:15;12.27;;;7.45;;
73487;SDS011;61721;42.206;25.320;2023-03-23T10:24:51;14.40;;;7.50;;
73487;SDS011;61721;42.206;25.320;2023-03-23T10:27:25;14.55;;;7.47;;
73487;SDS011;61721;42.206;25.320;2023-03-23T10:30:01;12.52;;;6.53;;
73487;SDS011;61721;42.206;25.320;2023-03-23T10:32:39;11.10;;;6.03;;
73487;SDS011;61721;42.206;25.320;2023-03-23T10:35:11;17.30;;;7.78;;
73487;SDS011;61721;42.206;25.320;2023-03-23T10:37:42;11.75;;;6.60;;
73487;SDS011;61721;42.206;25.320;2023-03-23T10:40:16;14.50;;;7.82;;
73487;SDS011;61721;42.206;25.320;2023-03-23T10:42:46;35.13;;;15.40;;
73487;SDS011;61721;42.206;25.320;2023-03-23T10:45:16;17.02;;;7.97;;
73487;SDS011;61721;42.206;25.320;2023-03-23T10:47:48;19.10;;;10.10;;
73487;SDS011;61721;42.206;25.320;2023-03-23T10:50:22;25.27;;;13.20;;
73487;SDS011;61721;42.206;25.320;2023-03-23T10:52:53;12.75;;;6.15;;
73487;SDS011;61721;42.206;25.320;2023-03-23T10:55:34;18.67;;;9.63;;
73487;SDS011;61721;42.206;25.320;2023-03-23T10:58:04;12.38;;;7.13;;
73487;SDS011;61721;42.206;25.320;2023-03-23T11:00:32;24.60;;;11.02;;
73487;SDS011;61721;42.206;25.320;2023-03-23T11:03:20;13.35;;;7.32;;
73487;SDS011;61721;42.206;25.320;2023-03-23T11:05:55;12.75;;;6.97;;
73487;SDS011;61721;42.206;25.320;2023-03-23T11:08:25;21.75;;;9.10;;
73487;SDS011;61721;42.206;25.320;2023-03-23T11:10:58;24.80;;;9.68;;
73487;SDS011;61721;42.206;25.320;2023-03-23T11:13:33;16.83;;;7.85;;
73487;SDS011;61721;42.206;25.320;2023-03-23T11:16:04;8.55;;;5.25;;
73487;SDS011;61721;42.206;25.320;2023-03-23T11:18:35;11.55;;;5.65;;
73487;SDS011;61721;42.206;25.320;2023-03-23T11:21:03;8.07;;;4.60;;
73487;SDS011;61721;42.206;25.320;2023-03-23T11:23:34;13.52;;;6.13;;
73487;SDS011;61721;42.206;25.320;2023-03-23T11:26:08;8.40;;;5.20;;
73487;SDS011;61721;42.206;25.320;2023-03-23T11:28:43;10.30;;;6.10;;
73487;SDS011;61721;42.206;25.320;2023-03-23T11:31:12;12.13;;;5.82;;
73487;SDS011;61721;42.206;25.320;2023-03-23T11:33:45;14.75;;;6.78;;
73487;SDS011;61721;42.206;25.320;2023-03-23T11:36:28;8.60;;;4.72;;
73487;SDS011;61721;42.206;25.320;2023-03-23T11:38:57;9.82;;;5.75;;
73487;SDS011;61721;42.206;25.320;2023-03-23T11:41:28;9.05;;;4.22;;
73487;SDS011;61721;42.206;25.320;2023-03-23T11:44:03;8.50;;;4.53;;
73487;SDS011;61721;42.206;25.320;2023-03-23T11:46:38;8.75;;;4.72;;
73487;SDS011;61721;42.206;25.320;2023-03-23T11:49:10;10.05;;;5.20;;
73487;SDS011;61721;42.206;25.320;2023-03-23T11:51:45;12.65;;;6.18;;
73487;SDS011;61721;42.206;25.320;2023-03-23T11:54:17;17.63;;;7.20;;
73487;SDS011;61721;42.206;25.320;2023-03-23T11:56:54;21.10;;;7.78;;
73487;SDS011;61721;42.206;25.320;2023-03-23T11:59:26;17.08;;;6.45;;
73487;SDS011;61721;42.206;25.320;2023-03-23T12:01:58;11.38;;;5.93;;
73487;SDS011;61721;42.206;25.320;2023-03-23T12:04:48;9.88;;;5.60;;
73487;SDS011;61721;42.206;25.320;2023-03-23T12:07:28;8.48;;;5.25;;
73487;SDS011;61721;42.206;25.320;2023-03-23T12:10:14;8.10;;;5.25;;
73487;SDS011;61721;42.206;25.320;2023-03-23T12:12:56;7.63;;;4.60;;
73487;SDS011;61721;42.206;25.320;2023-03-23T12:15:34;17.25;;;6.85;;
73487;SDS011;61721;42.206;25.320;2023-03-23T12:18:09;9.05;;;4.75;;
73487;SDS011;61721;42.206;25.320;2023-03-23T12:20:48;16.00;;;6.38;;
73487;SDS011;61721;42.206;25.320;2023-03-23T12:23:25;11.25;;;5.05;;
73487;SDS011;61721;42.206;25.320;2023-03-23T12:26:03;10.90;;;5.72;;
73487;SDS011;61721;42.206;25.320;2023-03-23T12:31:52;8.95;;;4.65;;
73487;SDS011;61721;42.206;25.320;2023-03-23T12:34:33;12.80;;;5.80;;
73487;SDS011;61721;42.206;25.320;2023-03-23T12:37:16;18.33;;;8.07;;
73487;SDS011;61721;42.206;25.320;2023-03-23T12:40:06;9.05;;;5.38;;
73487;SDS011;61721;42.206;25.320;2023-03-23T12:42:54;9.20;;;5.40;;
73487;SDS011;61721;42.206;25.320;2023-03-23T12:45:37;14.68;;;6.10;;
73487;SDS011;61721;42.206;25.320;2023-03-23T12:48:22;6.45;;;3.88;;
73487;SDS011;61721;42.206;25.320;2023-03-23T12:51:05;8.48;;;4.70;;
73487;SDS011;61721;42.206;25.320;2023-03-23T12:53:42;14.40;;;6.65;;
73487;SDS011;61721;42.206;25.320;2023-03-23T12:56:15;7.50;;;3.95;;
73487;SDS011;61721;42.206;25.320;2023-03-23T12:58:49;7.68;;;4.78;;
73487;SDS011;61721;42.206;25.320;2023-03-23T13:01:23;6.72;;;3.85;;
73487;SDS011;61721;42.206;25.320;2023-03-23T13:03:55;7.55;;;4.13;;
73487;SDS011;61721;42.206;25.320;2023-03-23T13:06:26;16.35;;;7.60;;
73487;SDS011;61721;42.206;25.320;2023-03-23T13:08:58;17.08;;;8.48;;
73487;SDS011;61721;42.206;25.320;2023-03-23T13:11:31;7.65;;;4.30;;
73487;SDS011;61721;42.206;25.320;2023-03-23T13:21:11;9.68;;;5.25;;
73487;SDS011;61721;42.206;25.320;2023-03-23T13:23:44;10.07;;;5.80;;
73487;SDS011;61721;42.206;25.320;2023-03-23T13:26:17;8.57;;;4.70;;
73487;SDS011;61721;42.206;25.320;2023-03-23T13:28:54;8.50;;;4.97;;
73487;SDS011;61721;42.206;25.320;2023-03-23T13:31:24;6.45;;;3.97;;
73487;SDS011;61721;42.206;25.320;2023-03-23T13:33:59;8.63;;;5.10;;
73487;SDS011;61721;42.206;25.320;2023-03-23T13:36:31;8.50;;;4.93;;
73487;SDS011;61721;42.206;25.320;2023-03-23T13:39:03;8.75;;;4.53;;
73487;SDS011;61721;42.206;25.320;2023-03-23T13:41:34;9.60;;;4.63;;
73487;SDS011;61721;42.206;25.320;2023-03-23T13:44:17;8.57;;;4.82;;
73487;SDS011;61721;42.206;25.320;2023-03-23T13:47:05;8.38;;;4.47;;
73487;SDS011;61721;42.206;25.320;2023-03-23T13:49:44;7.65;;;4.75;;
73487;SDS011;61721;42.206;25.320;2023-03-23T13:52:21;10.98;;;4.93;;
73487;SDS011;61721;42.206;25.320;2023-03-23T13:54:51;9.48;;;4.57;;
73487;SDS011;61721;42.206;25.320;2023-03-23T13:57:35;8.98;;;5.13;;
73487;SDS011;61721;42.206;25.320;2023-03-23T14:00:12;8.73;;;4.85;;
73487;SDS011;61721;42.206;25.320;2023-03-23T14:03:02;8.85;;;5.05;;
73487;SDS011;61721;42.206;25.320;2023-03-23T14:05:33;6.00;;;3.78;;
73487;SDS011;61721;42.206;25.320;2023-03-23T14:08:09;7.70;;;4.72;;
73487;SDS011;61721;42.206;25.320;2023-03-23T14:10:39;9.35;;;4.38;;
73487;SDS011;61721;42.206;25.320;2023-03-23T14:13:15;7.55;;;4.45;;
73487;SDS011;61721;42.206;25.320;2023-03-23T14:15:56;8.77;;;4.65;;
73487;SDS011;61721;42.206;25.320;2023-03-23T14:18:27;9.18;;;4.50;;
73487;SDS011;61721;42.206;25.320;2023-03-23T14:20:58;7.40;;;4.18;;
73487;SDS011;61721;42.206;25.320;2023-03-23T14:23:27;9.77;;;5.40;;
73487;SDS011;61721;42.206;25.320;2023-03-23T14:25:59;10.15;;;4.80;;
73487;SDS011;61721;42.206;25.320;2023-03-23T14:28:35;10.10;;;5.63;;
73487;SDS011;61721;42.206;25.320;2023-03-23T14:31:04;9.77;;;4.95;;
73487;SDS011;61721;42.206;25.320;2023-03-23T14:33:41;7.47;;;4.50;;
73487;SDS011;61721;42.206;25.320;2023-03-23T14:36:08;7.30;;;4.28;;
73487;SDS011;61721;42.206;25.320;2023-03-23T14:38:37;7.80;;;4.43;;
73487;SDS011;61721;42.206;25.320;2023-03-23T14:41:05;8.45;;;4.15;;
73487;SDS011;61721;42.206;25.320;2023-03-23T14:43:33;7.95;;;4.03;;
73487;SDS011;61721;42.206;25.320;2023-03-23T14:46:03;8.98;;;5.10;;
73487;SDS011;61721;42.206;25.320;2023-03-23T14:48:34;6.72;;;4.28;;
73487;SDS011;61721;42.206;25.320;2023-03-23T14:51:03;8.80;;;4.45;;
73487;SDS011;61721;42.206;25.320;2023-03-23T14:56:06;8.50;;;4.25;;
73487;SDS011;61721;42.206;25.320;2023-03-23T14:58:37;8.35;;;4.90;;
73487;SDS011;61721;42.206;25.320;2023-03-23T15:01:05;8.38;;;4.47;;
73487;SDS011;61721;42.206;25.320;2023-03-23T15:03:37;7.70;;;4.15;;
73487;SDS011;61721;42.206;25.320;2023-03-23T15:06:09;8.48;;;4.20;;
73487;SDS011;61721;42.206;25.320;2023-03-23T15:08:40;6.50;;;3.80;;